createdAt,value
2022-11-10T00:00:27.235Z,18.7
2022-11-10T00:01:29.730Z,18.8
2022-11-10T00:02:32.222Z,18.7
2022-11-10T00:03:34.478Z,18.7
2022-11-10T00:04:36.793Z,18.7
2022-11-10T00:05:39.198Z,18.7
2022-11-10T00:06:42.037Z,18.8
2022-11-10T00:07:45.259Z,18.7
2022-11-10T00:08:47.968Z,18.8
2022-11-10T00:09:51.123Z,18.8
2022-11-10T00:10:53.307Z,18.8
2022-11-10T00:11:55.504Z,18.7
2022-11-10T00:12:58.000Z,18.8
2022-11-10T00:13:59.643Z,18.8
2022-11-10T00:15:01.579Z,18.9
2022-11-10T00:16:03.478Z,18.8
2022-11-10T00:17:05.668Z,18.9
2022-11-10T00:18:07.867Z,18.7
2022-11-10T00:19:10.081Z,19
2022-11-10T00:20:12.541Z,18.9
2022-11-10T00:21:15.042Z,18.9
2022-11-10T00:22:17.575Z,18.9
2022-11-10T00:23:20.870Z,18.9
2022-11-10T00:24:24.888Z,18.9
2022-11-10T00:25:27.065Z,18.8
2022-11-10T00:26:29.530Z,18.9
2022-11-10T00:27:32.018Z,18.7
2022-11-10T00:28:34.491Z,18.9
2022-11-10T00:29:36.392Z,19
2022-11-10T00:30:38.312Z,18.9
2022-11-10T00:31:44.759Z,18.9
2022-11-10T00:32:46.722Z,19
2022-11-10T00:33:48.913Z,18.9
2022-11-10T00:34:51.109Z,19
2022-11-10T00:35:53.587Z,18.9
2022-11-10T00:36:55.240Z,19
2022-11-10T00:37:57.486Z,18.9
2022-11-10T00:38:59.692Z,18.9
2022-11-10T00:40:02.177Z,19
2022-11-10T00:41:04.654Z,19
2022-11-10T00:42:06.855Z,19
2022-11-10T00:43:09.341Z,19
2022-11-10T00:44:11.264Z,18.9
2022-11-10T00:45:13.757Z,19
2022-11-10T00:46:15.669Z,19.1
2022-11-10T00:47:17.869Z,18.9
2022-11-10T00:48:20.078Z,19
2022-11-10T00:49:22.550Z,19
2022-11-10T00:50:24.738Z,19.2
2022-11-10T00:51:27.223Z,19
2022-11-10T00:52:29.444Z,18.9
2022-11-10T00:53:31.787Z,19.1
2022-11-10T00:54:33.703Z,19.1
2022-11-10T00:55:36.193Z,19.1
2022-11-10T00:56:38.122Z,19
2022-11-10T00:57:40.027Z,19.1
2022-11-10T00:58:41.668Z,19
2022-11-10T00:59:44.156Z,19
2022-11-10T01:00:46.172Z,19.2
2022-11-10T01:01:48.593Z,19.2
2022-11-10T01:02:50.827Z,19
2022-11-10T01:03:53.054Z,19.1
2022-11-10T01:04:55.246Z,19
2022-11-10T01:05:57.162Z,19.1
2022-11-10T01:06:59.847Z,19.1
2022-11-10T01:08:02.434Z,19.2
2022-11-10T01:09:05.032Z,19.2
2022-11-10T01:10:07.503Z,19.2
2022-11-10T01:11:09.701Z,19.2
2022-11-10T01:12:11.615Z,19.1
2022-11-10T01:13:14.083Z,19.1
2022-11-10T01:14:16.559Z,19.2
2022-11-10T01:16:23.714Z,19.1
2022-11-10T01:17:26.185Z,19.2
2022-11-10T01:18:28.391Z,19.2
2022-11-10T01:19:30.607Z,19.2
2022-11-10T01:20:32.784Z,19.2
2022-11-10T01:21:34.978Z,19.1
2022-11-10T01:22:37.457Z,19.3
2022-11-10T01:23:39.702Z,19.3
2022-11-10T01:24:41.967Z,19.2
2022-11-10T01:25:44.168Z,19.1
2022-11-10T01:26:46.638Z,19.2
2022-11-10T01:27:48.837Z,19.1
2022-11-10T01:28:51.026Z,19.2
2022-11-10T01:29:52.956Z,19.4
2022-11-10T01:30:55.147Z,19.2
2022-11-10T01:31:57.346Z,19.2
2022-11-10T01:32:59.822Z,19.2
2022-11-10T01:34:01.755Z,19.3
2022-11-10T01:35:04.249Z,19.5
2022-11-10T01:36:06.457Z,19.2
2022-11-10T01:37:08.634Z,19.3
2022-11-10T01:38:11.178Z,19.3
2022-11-10T01:39:13.120Z,19.4
2022-11-10T01:40:15.712Z,19.2
2022-11-10T01:41:18.349Z,19.3
2022-11-10T01:42:20.828Z,19.4
2022-11-10T01:43:23.603Z,19.4
2022-11-10T01:44:26.592Z,19.3
2022-11-10T01:45:29.056Z,19.4
2022-11-10T01:46:31.539Z,19.2
2022-11-10T01:47:34.013Z,19.3
2022-11-10T01:48:36.226Z,19.2
2022-11-10T01:49:38.426Z,19.4
2022-11-10T01:50:40.920Z,19.3
2022-11-10T01:51:43.108Z,19.2
2022-11-10T01:52:45.044Z,19.3
2022-11-10T01:53:47.507Z,19.4
2022-11-10T01:54:50.009Z,19.5
2022-11-10T01:55:52.549Z,19.4
2022-11-10T01:56:54.475Z,19.3
2022-11-10T01:57:56.938Z,19.4
2022-11-10T01:58:59.417Z,19.4
2022-11-10T02:00:01.900Z,19.4
2022-11-10T02:01:03.737Z,19.5
2022-11-10T02:02:06.228Z,19.2
2022-11-10T02:03:08.149Z,19.3
2022-11-10T02:04:10.614Z,19.4
2022-11-10T02:05:13.104Z,19.2
2022-11-10T02:06:15.304Z,19.5
2022-11-10T02:07:17.866Z,19.4
2022-11-10T02:08:20.141Z,19.3
2022-11-10T02:09:22.624Z,19.4
2022-11-10T02:10:24.576Z,19.4
2022-11-10T02:11:27.114Z,19.3
2022-11-10T02:12:29.033Z,19.3
2022-11-10T02:13:30.942Z,19.4
2022-11-10T02:14:33.413Z,19.3
2022-11-10T02:15:35.310Z,19.3
2022-11-10T02:16:37.523Z,19.6
2022-11-10T02:17:39.425Z,19.4
2022-11-10T02:18:41.608Z,19.3
2022-11-10T02:19:43.841Z,19.5
2022-11-10T02:20:46.064Z,19.4
2022-11-10T02:21:48.557Z,19.3
2022-11-10T02:22:50.777Z,19.4
2022-11-10T02:23:53.262Z,19.5
2022-11-10T02:24:55.444Z,19.4
2022-11-10T02:25:57.661Z,19.3
2022-11-10T02:27:00.201Z,19.3
2022-11-10T02:28:02.677Z,19.3
2022-11-10T02:29:04.893Z,19.4
2022-11-10T02:30:07.372Z,19.3
2022-11-10T02:31:09.592Z,19.3
2022-11-10T02:32:11.787Z,19.4
2022-11-10T02:33:14.263Z,19.5
2022-11-10T02:34:16.482Z,19.4
2022-11-10T02:35:18.670Z,19.4
2022-11-10T02:36:20.871Z,19.5
2022-11-10T02:37:22.514Z,19.3
2022-11-10T02:38:24.977Z,19.4
2022-11-10T02:39:27.181Z,19.4
2022-11-10T02:40:29.643Z,19.2
2022-11-10T02:41:32.213Z,19.4
2022-11-10T02:42:34.742Z,19.4
2022-11-10T02:43:36.951Z,19.4
2022-11-10T02:44:39.169Z,19.3
2022-11-10T02:45:41.642Z,19.4
2022-11-10T02:46:44.113Z,19.5
2022-11-10T02:47:46.584Z,19.4
2022-11-10T02:48:48.774Z,19.4
2022-11-10T02:49:51.252Z,19.5
2022-11-10T02:50:52.892Z,19.3
2022-11-10T02:51:55.365Z,19.6
2022-11-10T02:52:57.853Z,19.4
2022-11-10T02:54:00.339Z,19.6
2022-11-10T02:55:02.540Z,19.5
2022-11-10T02:56:04.740Z,19.5
2022-11-10T02:57:07.244Z,19.5
2022-11-10T02:58:09.813Z,19.4
2022-11-10T02:59:12.002Z,19.6
2022-11-10T03:00:14.487Z,19.6
2022-11-10T03:01:16.783Z,19.4
2022-11-10T03:02:19.304Z,19.6
2022-11-10T03:03:22.575Z,19.4
2022-11-10T03:04:26.518Z,19.5
2022-11-10T03:05:28.715Z,19.6
2022-11-10T03:06:31.095Z,19.6
2022-11-10T03:07:33.613Z,19.6
2022-11-10T03:08:36.169Z,19.6
2022-11-10T03:09:38.643Z,19.5
2022-11-10T03:10:41.109Z,19.5
2022-11-10T03:11:43.312Z,19.6
2022-11-10T03:12:45.803Z,19.4
2022-11-10T03:14:53.337Z,19.4
2022-11-10T03:15:55.539Z,19.6
2022-11-10T03:16:57.724Z,19.7
2022-11-10T03:18:00.196Z,19.4
2022-11-10T03:19:02.654Z,19.6
2022-11-10T03:20:05.136Z,19.5
2022-11-10T03:21:07.603Z,19.5
2022-11-10T03:22:09.552Z,19.6
2022-11-10T03:23:12.026Z,19.5
2022-11-10T03:24:14.222Z,19.4
2022-11-10T03:25:16.689Z,19.5
2022-11-10T03:26:19.184Z,19.7
2022-11-10T03:27:20.823Z,19.5
2022-11-10T03:28:23.325Z,19.7
2022-11-10T03:29:25.570Z,19.5
2022-11-10T03:30:28.067Z,19.6
2022-11-10T03:31:30.539Z,19.5
2022-11-10T03:32:32.485Z,19.7
2022-11-10T03:33:34.947Z,19.5
2022-11-10T03:34:36.931Z,19.6
2022-11-10T03:35:38.846Z,19.4
2022-11-10T03:36:41.046Z,19.5
2022-11-10T03:37:43.250Z,19.8
2022-11-10T03:38:45.447Z,19.5
2022-11-10T03:39:47.937Z,19.6
2022-11-10T03:41:55.403Z,19.6
2022-11-10T03:42:57.889Z,19.4
2022-11-10T03:43:59.831Z,19.5
2022-11-10T03:45:02.103Z,19.7
2022-11-10T03:46:04.311Z,19.5
2022-11-10T03:47:06.489Z,19.6
2022-11-10T03:48:08.382Z,19.7
2022-11-10T03:49:10.587Z,19.6
2022-11-10T03:50:12.781Z,19.3
2022-11-10T03:51:15.258Z,19.6
2022-11-10T03:52:17.482Z,19.5
2022-11-10T03:53:20.512Z,19.5
2022-11-10T03:54:23.996Z,19.3
2022-11-10T03:55:26.500Z,19.3
2022-11-10T03:56:28.693Z,19.5
2022-11-10T03:57:30.909Z,19.5
2022-11-10T03:58:32.807Z,19.4
2022-11-10T03:59:35.046Z,19.5
2022-11-10T04:00:37.579Z,19.4
2022-11-10T04:01:40.128Z,19.6
2022-11-10T04:02:42.589Z,19.3
2022-11-10T04:04:49.853Z,19.6
2022-11-10T04:05:52.075Z,19.3
2022-11-10T04:06:54.462Z,19.4
2022-11-10T04:07:56.946Z,19.6
2022-11-10T04:08:58.862Z,19.5
2022-11-10T04:10:01.075Z,19.6
2022-11-10T04:11:03.558Z,19.2
2022-11-10T04:12:06.505Z,19.6
2022-11-10T04:13:08.687Z,19.4
2022-11-10T04:14:10.340Z,19.5
2022-11-10T04:15:12.841Z,19.3
2022-11-10T04:16:15.374Z,19.4
2022-11-10T04:17:17.565Z,19.4
2022-11-10T04:18:20.049Z,19.3
2022-11-10T04:19:22.235Z,19.5
2022-11-10T04:20:24.709Z,19.2
2022-11-10T04:21:27.189Z,19.3
2022-11-10T04:22:29.671Z,19.2
2022-11-10T04:23:31.850Z,19.2
2022-11-10T04:24:34.047Z,19.2
2022-11-10T04:25:35.977Z,19.3
2022-11-10T04:26:37.901Z,19.3
2022-11-10T04:27:40.094Z,19.2
2022-11-10T04:28:42.011Z,19.2
2022-11-10T04:29:43.923Z,19.2
2022-11-10T04:30:46.148Z,19.3
2022-11-10T04:31:48.682Z,19.1
2022-11-10T04:32:51.158Z,19.1
2022-11-10T04:33:53.360Z,19.3
2022-11-10T04:34:55.291Z,19.1
2022-11-10T04:35:56.917Z,19.2
2022-11-10T04:36:59.389Z,19.1
2022-11-10T04:38:01.595Z,19.1
2022-11-10T04:39:03.793Z,19.2
2022-11-10T04:40:05.982Z,19.3
2022-11-10T04:41:08.190Z,19.4
2022-11-10T04:42:10.390Z,19.4
2022-11-10T04:43:12.864Z,19.2
2022-11-10T04:44:14.775Z,19.2
2022-11-10T04:45:16.987Z,19.2
2022-11-10T04:46:18.915Z,19.1
2022-11-10T04:47:21.497Z,19.2
2022-11-10T04:48:24.083Z,19.2
2022-11-10T04:49:26.317Z,19.2
2022-11-10T04:50:28.829Z,19.3
2022-11-10T04:51:31.782Z,19.2
2022-11-10T04:52:34.588Z,19.3
2022-11-10T04:53:37.129Z,19.2
2022-11-10T04:54:39.604Z,19.2
2022-11-10T04:55:41.788Z,18.9
2022-11-10T04:56:43.963Z,19.2
2022-11-10T04:57:45.919Z,19.2
2022-11-10T04:58:48.132Z,19.2
2022-11-10T04:59:50.599Z,19.3
2022-11-10T05:00:52.839Z,19.2
2022-11-10T05:01:55.849Z,19.2
2022-11-10T05:02:58.398Z,19.1
2022-11-10T05:04:00.592Z,19.1
2022-11-10T05:05:02.817Z,19.1
2022-11-10T05:06:05.277Z,19.1
2022-11-10T05:07:07.834Z,19.2
2022-11-10T05:08:10.295Z,19.2
2022-11-10T05:09:12.776Z,19.1
2022-11-10T05:10:14.695Z,19
2022-11-10T05:11:16.607Z,19
2022-11-10T05:13:24.522Z,19.2
2022-11-10T05:14:27.003Z,19.2
2022-11-10T05:15:28.657Z,19.1
2022-11-10T05:16:31.132Z,19.1
2022-11-10T05:17:33.379Z,19.1
2022-11-10T05:18:35.921Z,19.1
2022-11-10T05:19:38.113Z,19.1
2022-11-10T05:20:40.313Z,19
2022-11-10T05:21:42.231Z,19.1
2022-11-10T05:23:49.691Z,19
2022-11-10T05:24:51.889Z,19.1
2022-11-10T05:25:54.080Z,18.9
2022-11-10T05:26:56.281Z,19
2022-11-10T05:27:58.195Z,19
2022-11-10T05:29:00.693Z,19
2022-11-10T05:30:02.880Z,19.1
2022-11-10T05:31:05.066Z,19.1
2022-11-10T05:32:07.531Z,19.1
2022-11-10T05:33:09.764Z,19.1
2022-11-10T05:34:12.298Z,19.2
2022-11-10T05:35:14.774Z,19.2
2022-11-10T05:36:16.967Z,19.1
2022-11-10T05:37:19.448Z,19.1
2022-11-10T05:38:21.646Z,19
2022-11-10T05:39:24.113Z,19.1
2022-11-10T05:40:26.603Z,19
2022-11-10T05:41:28.802Z,19
2022-11-10T05:42:31.053Z,19.2
2022-11-10T05:43:33.271Z,19.1
2022-11-10T05:44:35.774Z,18.9
2022-11-10T05:45:37.708Z,19
2022-11-10T05:46:40.196Z,19
2022-11-10T05:47:42.667Z,19
2022-11-10T05:48:44.892Z,19
2022-11-10T05:49:47.425Z,19
2022-11-10T05:50:49.917Z,19
2022-11-10T05:51:51.902Z,19.1
2022-11-10T05:52:54.228Z,19
2022-11-10T05:53:56.493Z,18.9
2022-11-10T05:54:58.988Z,19.1
2022-11-10T05:56:01.541Z,19.1
2022-11-10T05:57:03.490Z,19
2022-11-10T05:58:05.695Z,19
2022-11-10T05:59:07.619Z,19
2022-11-10T06:00:09.838Z,19
2022-11-10T06:01:11.740Z,19.1
2022-11-10T06:02:13.988Z,19
2022-11-10T06:03:16.609Z,19
2022-11-10T06:04:18.573Z,19
2022-11-10T06:05:21.109Z,19
2022-11-10T06:06:27.289Z,18.9
2022-11-10T06:07:29.761Z,19
2022-11-10T06:08:31.956Z,19
2022-11-10T06:09:34.428Z,18.9
2022-11-10T06:10:36.974Z,19
2022-11-10T06:11:38.618Z,18.9
2022-11-10T06:12:40.518Z,18.9
2022-11-10T06:13:42.723Z,19
2022-11-10T06:14:44.908Z,19
2022-11-10T06:16:52.426Z,19
2022-11-10T06:17:54.626Z,19
2022-11-10T06:18:57.085Z,19
2022-11-10T06:19:59.585Z,19
2022-11-10T06:21:02.133Z,18.9
2022-11-10T06:23:09.321Z,19
2022-11-10T06:24:11.516Z,19.1
2022-11-10T06:25:13.181Z,19
2022-11-10T06:26:15.660Z,19
2022-11-10T06:27:17.858Z,18.9
2022-11-10T06:28:20.035Z,18.9
2022-11-10T06:30:27.210Z,18.8
2022-11-10T06:31:29.463Z,18.9
2022-11-10T06:32:31.666Z,18.9
2022-11-10T06:33:33.594Z,18.9
2022-11-10T06:34:36.075Z,18.9
2022-11-10T06:35:38.039Z,19
2022-11-10T06:36:40.292Z,19
2022-11-10T06:37:42.210Z,19.2
2022-11-10T06:38:44.384Z,19
2022-11-10T06:39:46.589Z,18.9
2022-11-10T06:40:48.771Z,18.9
2022-11-10T06:41:50.955Z,19
2022-11-10T06:42:53.161Z,19
2022-11-10T06:43:55.073Z,18.9
2022-11-10T06:44:57.602Z,19
2022-11-10T06:45:59.798Z,19
2022-11-10T06:47:02.055Z,18.9
2022-11-10T06:48:04.303Z,18.9
2022-11-10T06:49:05.686Z,19
2022-11-10T06:50:07.607Z,18.9
2022-11-10T06:51:09.820Z,19
2022-11-10T06:52:12.357Z,18.9
2022-11-10T06:53:14.824Z,19
2022-11-10T06:54:16.760Z,19
2022-11-10T06:55:19.231Z,19
2022-11-10T06:56:21.725Z,19
2022-11-10T06:57:23.918Z,18.8
2022-11-10T06:58:25.872Z,19
2022-11-10T06:59:28.334Z,18.9
2022-11-10T07:00:31.087Z,19
2022-11-10T07:01:33.235Z,18.8
2022-11-10T07:02:35.977Z,18.9
2022-11-10T07:04:43.153Z,18.8
2022-11-10T07:05:45.356Z,18.9
2022-11-10T07:06:48.055Z,19
2022-11-10T07:07:50.908Z,19
2022-11-10T07:08:53.092Z,19
2022-11-10T07:09:55.317Z,18.9
2022-11-10T07:10:57.784Z,19
2022-11-10T07:11:59.982Z,18.9
2022-11-10T07:13:01.897Z,18.9
2022-11-10T07:14:04.401Z,19
2022-11-10T07:15:06.864Z,19
2022-11-10T07:16:08.507Z,19
2022-11-10T07:17:10.988Z,19
2022-11-10T07:18:12.939Z,18.9
2022-11-10T07:19:15.128Z,18.9
2022-11-10T07:20:17.627Z,18.8
2022-11-10T07:21:19.540Z,18.9
2022-11-10T07:22:22.057Z,19
2022-11-10T07:23:25.305Z,18.9
2022-11-10T07:24:27.307Z,18.9
2022-11-10T07:25:29.777Z,19
2022-11-10T07:26:32.253Z,18.9
2022-11-10T07:27:34.740Z,18.9
2022-11-10T07:28:37.217Z,18.9
2022-11-10T07:29:39.690Z,18.9
2022-11-10T07:30:42.183Z,18.9
2022-11-10T07:31:44.368Z,19
2022-11-10T07:32:46.276Z,19.1
2022-11-10T07:34:53.477Z,18.9
2022-11-10T07:35:55.683Z,18.9
2022-11-10T07:36:57.314Z,18.9
2022-11-10T07:37:59.822Z,19
2022-11-10T07:39:02.364Z,18.9
2022-11-10T07:40:04.836Z,18.9
2022-11-10T07:41:07.318Z,18.8
2022-11-10T07:42:09.525Z,18.9
2022-11-10T07:43:11.456Z,18.9
2022-11-10T07:44:13.689Z,18.8
2022-11-10T07:45:16.165Z,18.9
2022-11-10T07:46:18.648Z,18.9
2022-11-10T07:47:20.298Z,19
2022-11-10T07:48:21.934Z,18.9
2022-11-10T07:49:24.158Z,19
2022-11-10T07:50:26.719Z,19
2022-11-10T07:51:29.047Z,18.8
2022-11-10T07:52:31.256Z,18.9
2022-11-10T07:53:33.744Z,18.8
2022-11-10T07:54:36.285Z,18.9
2022-11-10T07:55:38.485Z,18.9
2022-11-10T07:56:40.691Z,18.9
2022-11-10T07:57:42.892Z,18.9
2022-11-10T07:58:45.084Z,18.8
2022-11-10T07:59:47.305Z,19
2022-11-10T08:00:54.261Z,18.9
2022-11-10T08:01:56.895Z,18.9
2022-11-10T08:02:59.661Z,18.9
2022-11-10T08:04:02.151Z,18.8
2022-11-10T08:05:04.376Z,18.8
2022-11-10T08:06:06.577Z,18.9
2022-11-10T08:07:09.332Z,18.9
2022-11-10T08:08:11.994Z,19
2022-11-10T08:09:14.206Z,18.9
2022-11-10T08:10:16.742Z,18.9
2022-11-10T08:11:18.940Z,18.9
2022-11-10T08:12:21.416Z,18.8
2022-11-10T08:13:24.417Z,18.9
2022-11-10T08:14:27.209Z,18.8
2022-11-10T08:15:29.408Z,18.9
2022-11-10T08:16:31.904Z,18.8
2022-11-10T08:17:34.393Z,18.9
2022-11-10T08:18:36.895Z,18.9
2022-11-10T08:19:39.368Z,18.8
2022-11-10T08:20:41.882Z,18.8
2022-11-10T08:21:44.107Z,18.9
2022-11-10T08:22:46.310Z,18.9
2022-11-10T08:23:48.247Z,18.8
2022-11-10T08:24:50.763Z,18.9
2022-11-10T08:25:53.308Z,18.8
2022-11-10T08:26:55.789Z,19
2022-11-10T08:27:58.256Z,18.8
2022-11-10T08:29:00.447Z,18.9
2022-11-10T08:30:02.627Z,18.8
2022-11-10T08:31:06.652Z,18.9
2022-11-10T08:32:08.571Z,18.9
2022-11-10T08:33:10.794Z,18.9
2022-11-10T08:34:13.078Z,18.8
2022-11-10T08:35:15.556Z,18.8
2022-11-10T08:36:17.786Z,18.8
2022-11-10T08:37:19.729Z,18.9
2022-11-10T08:38:21.375Z,18.8
2022-11-10T08:40:28.695Z,18.9
2022-11-10T08:41:31.405Z,18.8
2022-11-10T08:42:33.626Z,18.8
2022-11-10T08:43:35.832Z,19
2022-11-10T08:44:38.302Z,18.8
2022-11-10T08:45:40.232Z,18.9
2022-11-10T08:46:42.166Z,18.8
2022-11-10T08:47:44.377Z,18.8
2022-11-10T08:48:46.846Z,19
2022-11-10T08:49:49.067Z,19
2022-11-10T08:50:50.988Z,18.7
2022-11-10T08:51:53.249Z,18.9
2022-11-10T08:52:54.901Z,18.9
2022-11-10T08:53:57.415Z,18.9
2022-11-10T08:54:59.620Z,18.8
2022-11-10T08:56:02.140Z,18.9
2022-11-10T08:57:04.724Z,18.9
2022-11-10T08:58:07.217Z,18.9
2022-11-10T08:59:09.151Z,18.8
2022-11-10T09:00:11.348Z,19
2022-11-10T09:01:13.849Z,18.8
2022-11-10T09:02:16.062Z,18.8
2022-11-10T09:03:18.555Z,18.9
2022-11-10T09:04:22.111Z,18.9
2022-11-10T09:05:24.802Z,18.9
2022-11-10T09:06:27.296Z,18.8
2022-11-10T09:07:29.797Z,18.9
2022-11-10T09:08:32.007Z,18.9
2022-11-10T09:09:34.490Z,18.9
2022-11-10T09:10:36.993Z,18.8
2022-11-10T09:11:39.247Z,18.8
2022-11-10T09:12:42.117Z,18.9
2022-11-10T09:13:44.337Z,18.8
2022-11-10T09:14:46.824Z,18.8
2022-11-10T09:15:49.314Z,18.9
2022-11-10T09:16:51.821Z,18.9
2022-11-10T09:17:54.017Z,18.9
2022-11-10T09:18:55.929Z,18.8
2022-11-10T09:19:58.538Z,18.9
2022-11-10T09:21:01.300Z,18.9
2022-11-10T09:22:03.224Z,18.8
2022-11-10T09:23:05.737Z,18.9
2022-11-10T09:24:08.270Z,18.8
2022-11-10T09:25:10.747Z,18.8
2022-11-10T09:26:13.233Z,18.8
2022-11-10T09:27:15.476Z,18.9
2022-11-10T09:28:18.027Z,18.9
2022-11-10T09:29:20.537Z,19
2022-11-10T09:30:22.198Z,18.9
2022-11-10T09:31:24.857Z,18.8
2022-11-10T09:32:27.339Z,18.8
2022-11-10T09:33:29.542Z,18.8
2022-11-10T09:34:32.065Z,18.8
2022-11-10T09:35:33.735Z,18.9
2022-11-10T09:36:35.970Z,18.8
2022-11-10T09:37:38.445Z,19
2022-11-10T09:38:40.960Z,18.9
2022-11-10T09:39:43.184Z,18.8
2022-11-10T09:40:45.660Z,19
2022-11-10T09:41:48.141Z,18.8
2022-11-10T09:42:50.651Z,18.8
2022-11-10T09:43:53.180Z,18.7
2022-11-10T09:44:55.659Z,18.8
2022-11-10T09:45:57.863Z,18.9
2022-11-10T09:47:00.070Z,18.9
2022-11-10T09:48:02.280Z,18.7
2022-11-10T09:49:03.936Z,18.8
2022-11-10T09:50:05.857Z,18.9
2022-11-10T09:51:07.824Z,18.8
2022-11-10T09:52:10.295Z,19
2022-11-10T09:53:12.491Z,18.9
2022-11-10T09:54:14.985Z,18.9
2022-11-10T09:55:17.505Z,18.7
2022-11-10T09:56:19.998Z,18.8
2022-11-10T09:57:22.201Z,18.9
2022-11-10T09:58:25.083Z,18.8
2022-11-10T09:59:27.734Z,18.9
2022-11-10T10:00:30.217Z,18.8
2022-11-10T10:01:32.255Z,18.9
2022-11-10T10:02:34.670Z,18.8
2022-11-10T10:03:36.334Z,18.8
2022-11-10T10:04:38.531Z,18.8
2022-11-10T10:05:44.494Z,18.9
2022-11-10T10:07:50.622Z,18.8
2022-11-10T10:08:53.197Z,18.8
2022-11-10T10:09:55.684Z,18.9
2022-11-10T10:10:58.157Z,18.8
2022-11-10T10:12:00.635Z,18.9
2022-11-10T10:13:03.115Z,18.8
2022-11-10T10:14:05.387Z,18.9
2022-11-10T10:15:07.943Z,18.8
2022-11-10T10:16:10.429Z,18.8
2022-11-10T10:17:12.882Z,18.8
2022-11-10T10:18:15.085Z,18.9
2022-11-10T10:19:17.067Z,18.7
2022-11-10T10:20:19.637Z,18.8
2022-11-10T10:21:22.164Z,18.9
2022-11-10T10:22:24.368Z,18.8
2022-11-10T10:24:31.852Z,18.9
2022-11-10T10:25:34.132Z,18.8
2022-11-10T10:26:36.629Z,18.8
2022-11-10T10:27:39.102Z,18.9
2022-11-10T10:28:40.768Z,18.8
2022-11-10T10:29:43.004Z,18.8
2022-11-10T10:30:45.548Z,18.8
2022-11-10T10:31:47.482Z,18.8
2022-11-10T10:32:49.681Z,18.8
2022-11-10T10:33:52.161Z,18.8
2022-11-10T10:34:54.402Z,18.8
2022-11-10T10:35:56.953Z,18.8
2022-11-10T10:36:58.912Z,18.8
2022-11-10T10:38:01.144Z,18.8
2022-11-10T10:39:03.074Z,18.8
2022-11-10T10:40:05.557Z,18.8
2022-11-10T10:41:07.812Z,18.8
2022-11-10T10:42:24.949Z,18.7
2022-11-10T10:43:27.161Z,18.8
2022-11-10T10:44:29.381Z,18.9
2022-11-10T10:45:31.980Z,18.7
2022-11-10T10:46:36.410Z,18.8
2022-11-10T10:47:38.642Z,18.8
2022-11-10T10:48:41.258Z,18.8
2022-11-10T10:49:43.477Z,18.8
2022-11-10T10:50:45.694Z,18.9
2022-11-10T10:51:47.604Z,18.8
2022-11-10T10:52:49.828Z,18.8
2022-11-10T10:53:51.738Z,18.7
2022-11-10T10:54:53.388Z,18.8
2022-11-10T10:55:55.606Z,18.9
2022-11-10T10:56:57.806Z,18.9
2022-11-10T10:58:00.027Z,18.8
2022-11-10T10:59:02.267Z,18.8
2022-11-10T11:00:04.758Z,18.8
2022-11-10T11:01:07.404Z,18.8
2022-11-10T11:02:10.231Z,18.8
2022-11-10T11:03:12.442Z,18.9
2022-11-10T11:04:14.668Z,19
2022-11-10T11:05:17.137Z,18.8
2022-11-10T11:06:19.360Z,18.9
2022-11-10T11:07:21.015Z,18.9
2022-11-10T11:08:24.082Z,19
2022-11-10T11:09:26.808Z,18.7
2022-11-10T11:10:28.748Z,18.9
2022-11-10T11:11:30.977Z,18.8
2022-11-10T11:12:33.493Z,18.9
2022-11-10T11:13:35.446Z,18.9
2022-11-10T11:15:42.642Z,18.8
2022-11-10T11:16:44.880Z,18.8
2022-11-10T11:17:47.498Z,18.8
2022-11-10T11:18:50.142Z,18.9
2022-11-10T11:20:56.800Z,18.9
2022-11-10T11:21:59.004Z,18.9
2022-11-10T11:23:01.221Z,18.8
2022-11-10T11:24:03.173Z,18.8
2022-11-10T11:25:05.446Z,18.9
2022-11-10T11:26:07.679Z,18.9
2022-11-10T11:27:09.868Z,18.8
2022-11-10T11:28:12.104Z,18.8
2022-11-10T11:29:14.307Z,18.8
2022-11-10T11:30:16.557Z,18.9
2022-11-10T11:31:18.221Z,18.9
2022-11-10T11:32:19.896Z,18.7
2022-11-10T11:33:22.440Z,18.8
2022-11-10T11:34:24.087Z,18.8
2022-11-10T11:35:26.295Z,18.8
2022-11-10T11:36:28.780Z,18.8
2022-11-10T11:37:31.266Z,18.8
2022-11-10T11:38:33.196Z,18.8
2022-11-10T11:39:35.427Z,18.9
2022-11-10T11:40:37.678Z,18.8
2022-11-10T11:41:40.152Z,18.8
2022-11-10T11:42:42.088Z,19
2022-11-10T11:43:44.019Z,18.8
2022-11-10T11:44:46.266Z,18.8
2022-11-10T11:45:48.783Z,18.7
2022-11-10T11:46:51.544Z,18.8
2022-11-10T11:47:54.064Z,18.8
2022-11-10T11:48:56.348Z,18.8
2022-11-10T11:49:58.274Z,18.8
2022-11-10T11:51:00.505Z,18.8
2022-11-10T11:52:02.420Z,18.8
2022-11-10T11:53:04.906Z,18.8
2022-11-10T11:54:07.387Z,18.8
2022-11-10T11:55:09.892Z,18.8
2022-11-10T11:56:12.112Z,18.9
2022-11-10T11:57:14.060Z,18.8
2022-11-10T11:58:16.546Z,18.7
2022-11-10T11:59:19.074Z,18.9
2022-11-10T12:00:21.309Z,18.8
2022-11-10T12:01:23.256Z,18.8
2022-11-10T12:02:25.596Z,18.8
2022-11-10T12:03:28.395Z,18.9
2022-11-10T12:04:30.995Z,18.8
2022-11-10T12:05:33.207Z,18.8
2022-11-10T12:06:35.717Z,18.9
2022-11-10T12:07:38.417Z,18.8
2022-11-10T12:08:40.884Z,18.8
2022-11-10T12:09:42.804Z,18.8
2022-11-10T12:10:44.726Z,18.8
2022-11-10T12:11:47.220Z,18.7
2022-11-10T12:12:49.154Z,18.7
2022-11-10T12:13:50.792Z,18.7
2022-11-10T12:14:53.313Z,18.8
2022-11-10T12:15:55.525Z,18.8
2022-11-10T12:16:57.475Z,18.7
2022-11-10T12:17:59.962Z,18.7
2022-11-10T12:19:02.461Z,18.8
2022-11-10T12:20:04.989Z,18.8
2022-11-10T12:21:07.478Z,18.9
2022-11-10T12:22:09.955Z,18.7
2022-11-10T12:23:12.179Z,18.8
2022-11-10T12:24:14.445Z,18.8
2022-11-10T12:25:16.360Z,18.7
2022-11-10T12:26:18.565Z,18.7
2022-11-10T12:27:21.051Z,18.8
2022-11-10T12:28:24.867Z,18.9
2022-11-10T12:29:27.489Z,18.8
2022-11-10T12:30:29.996Z,18.8
2022-11-10T12:31:32.506Z,18.8
2022-11-10T12:32:34.427Z,18.9
2022-11-10T12:33:36.353Z,18.8
2022-11-10T12:34:38.596Z,18.8
2022-11-10T12:35:41.135Z,18.7
2022-11-10T12:36:43.070Z,18.8
2022-11-10T12:37:45.260Z,18.8
2022-11-10T12:38:47.230Z,18.8
2022-11-10T12:39:49.710Z,18.8
2022-11-10T12:40:51.915Z,18.8
2022-11-10T12:41:54.180Z,18.8
2022-11-10T12:42:56.686Z,18.9
2022-11-10T12:43:58.881Z,18.8
2022-11-10T12:45:01.395Z,18.9
2022-11-10T12:46:03.632Z,18.9
2022-11-10T12:47:06.117Z,18.8
2022-11-10T12:48:08.333Z,18.8
2022-11-10T12:49:10.812Z,18.9
2022-11-10T12:50:13.047Z,18.8
2022-11-10T12:51:15.736Z,18.7
2022-11-10T12:52:18.236Z,18.8
2022-11-10T12:53:20.199Z,18.8
2022-11-10T12:54:22.432Z,18.7
2022-11-10T12:55:24.637Z,18.8
2022-11-10T12:56:26.925Z,18.8
2022-11-10T12:57:28.863Z,18.6
2022-11-10T12:58:30.825Z,18.8
2022-11-10T12:59:33.056Z,18.8
2022-11-10T13:00:35.549Z,18.8
2022-11-10T13:01:37.865Z,18.7
2022-11-10T13:02:40.525Z,18.7
2022-11-10T13:03:43.050Z,18.8
2022-11-10T13:04:45.279Z,18.8
2022-11-10T13:05:47.519Z,18.7
2022-11-10T13:06:49.936Z,18.8
2022-11-10T13:07:52.655Z,18.8
2022-11-10T13:08:54.865Z,18.7
2022-11-10T13:09:57.120Z,18.8
2022-11-10T13:10:59.050Z,18.7
2022-11-10T13:12:01.555Z,18.8
2022-11-10T13:13:03.749Z,18.8
2022-11-10T13:14:06.238Z,18.8
2022-11-10T13:15:08.440Z,18.7
2022-11-10T13:16:10.700Z,18.7
2022-11-10T13:17:12.685Z,18.8
2022-11-10T13:18:15.174Z,18.8
2022-11-10T13:19:17.376Z,18.9
2022-11-10T13:21:24.056Z,18.8
2022-11-10T13:22:26.615Z,18.8
2022-11-10T13:23:28.832Z,18.8
2022-11-10T13:24:31.231Z,18.8
2022-11-10T13:25:33.969Z,18.7
2022-11-10T13:26:36.154Z,18.8
2022-11-10T13:27:38.632Z,18.8
2022-11-10T13:28:41.125Z,18.8
2022-11-10T13:29:43.698Z,18.7
2022-11-10T13:30:46.199Z,18.8
2022-11-10T13:31:48.729Z,18.7
2022-11-10T13:32:51.273Z,18.7
2022-11-10T13:33:53.225Z,18.9
2022-11-10T13:34:55.460Z,18.8
2022-11-10T13:35:57.681Z,18.8
2022-11-10T13:36:59.977Z,18.9
2022-11-10T13:38:02.748Z,18.7
2022-11-10T13:39:05.290Z,18.8
2022-11-10T13:40:07.789Z,18.7
2022-11-10T13:41:10.055Z,18.7
2022-11-10T13:42:11.996Z,18.8
2022-11-10T13:43:14.500Z,18.9
2022-11-10T13:44:16.429Z,18.7
2022-11-10T13:45:18.367Z,18.8
2022-11-10T13:46:20.601Z,18.8
2022-11-10T13:47:23.083Z,18.7
2022-11-10T13:48:25.913Z,18.8
2022-11-10T13:49:28.396Z,18.8
2022-11-10T13:50:30.617Z,18.8
2022-11-10T13:51:33.131Z,18.8
2022-11-10T13:52:35.376Z,18.8
2022-11-10T13:53:37.933Z,18.8
2022-11-10T13:54:40.460Z,18.7
2022-11-10T13:55:42.964Z,18.7
2022-11-10T13:56:45.457Z,18.8
2022-11-10T13:57:47.960Z,18.8
2022-11-10T13:58:50.208Z,18.8
2022-11-10T13:59:51.858Z,18.8
2022-11-10T14:00:54.405Z,18.8
2022-11-10T14:01:56.752Z,18.7
2022-11-10T14:02:59.371Z,18.8
2022-11-10T14:04:02.405Z,18.7
2022-11-10T14:05:05.381Z,18.8
2022-11-10T14:06:07.582Z,18.8
2022-11-10T14:07:09.949Z,18.8
2022-11-10T14:08:12.654Z,18.7
2022-11-10T14:09:15.217Z,18.8
2022-11-10T14:10:17.416Z,18.8
2022-11-10T14:11:19.910Z,18.8
2022-11-10T14:12:22.143Z,18.8
2022-11-10T14:13:23.789Z,18.8
2022-11-10T14:14:26.271Z,18.8
2022-11-10T14:15:28.493Z,18.8